Tarawa Terrace, North Carolina
Current Conditions -  °F | °C
As of 11:56 AM on Thursday 23 Oct 2014 (Local Time) from KNCA Reporting Station
Clear Clear  
Wind Chill: 63°   Ceiling: Unl
Heat Index: 63°   Visibility: 10mi
Dew Point: 43°   Wind: 9mph
Humidity: 48%   Direction: 320°NW
Pressure: 29.98"   Gusts: NA
Location:  34.73°N, 77.38°W
Report Text: KNCA 231556Z 32008KT 10SM CLR 17/06 A2998 RMK AO2 SLP155 T01720061
Loading
Personal Weather Stations






























Interactive Weather Map
Tropical Storm Tracking
New forecast layout! Learn more

10-Day Weather Forecast

Advertisements
Track Severe Weather on mobile